createdAt,value
2022-11-14T00:04:19.332Z,10.63
2022-11-14T00:09:26.663Z,11.37
2022-11-14T00:14:29.903Z,12.03
2022-11-14T00:19:33.280Z,15.03
2022-11-14T00:24:37.992Z,9.90
2022-11-14T00:29:44.880Z,14.10
2022-11-14T00:34:48.043Z,12.60
2022-11-14T00:39:52.689Z,17.07
2022-11-14T00:44:56.026Z,14.13
2022-11-14T00:49:59.263Z,13.47
2022-11-14T00:55:03.909Z,12.80
2022-11-14T01:00:09.439Z,12.67
2022-11-14T01:05:12.664Z,12.63
2022-11-14T01:10:17.565Z,13.67
2022-11-14T01:15:20.768Z,12.83
2022-11-14T01:20:24.218Z,12.60
2022-11-14T01:25:30.813Z,15.23
2022-11-14T01:30:34.000Z,13.73
2022-11-14T01:35:38.705Z,14.87
2022-11-14T01:47:06.703Z,14.83
2022-11-14T01:52:17.814Z,13.77
2022-11-14T01:57:26.616Z,12.37
2022-11-14T02:02:31.572Z,14.13
2022-11-14T02:07:37.848Z,15.43
2022-11-14T02:12:41.073Z,14.27
2022-11-14T02:17:46.053Z,15.40
2022-11-14T02:22:50.776Z,15.53
2022-11-14T02:27:54.642Z,14.73
2022-11-14T02:33:10.388Z,13.03
2022-11-14T02:38:15.874Z,11.80
2022-11-14T02:43:19.042Z,12.07
2022-11-14T02:48:22.364Z,10.43
2022-11-14T02:53:27.107Z,10.30
2022-11-14T02:58:30.559Z,11.83
2022-11-14T03:03:34.703Z,11.17
2022-11-14T03:08:39.321Z,13.63
2022-11-14T03:13:42.627Z,14.13
2022-11-14T03:18:45.771Z,13.60
2022-11-14T03:23:50.520Z,12.63
2022-11-14T03:28:55.319Z,12.73
2022-11-14T03:33:58.674Z,15.13
2022-11-14T03:39:03.984Z,10.70
2022-11-14T03:44:07.264Z,12.87
2022-11-14T03:49:10.526Z,13.67
2022-11-14T03:54:15.232Z,13.70
2022-11-14T03:59:18.512Z,12.60
2022-11-14T04:04:21.823Z,16.23
2022-11-14T04:09:26.533Z,11.47
2022-11-14T04:14:29.813Z,10.70
2022-11-14T04:19:33.097Z,16.13
2022-11-14T04:24:37.707Z,12.93
2022-11-14T04:29:40.961Z,13.57
2022-11-14T04:34:44.200Z,16.17
2022-11-14T04:39:48.715Z,15.40
2022-11-14T04:44:51.841Z,14.90
2022-11-14T04:49:55.124Z,14.13
2022-11-14T04:54:59.724Z,12.10
2022-11-14T05:00:02.975Z,11.13
2022-11-14T05:05:06.723Z,14.23
2022-11-14T05:10:12.098Z,12.67
2022-11-14T05:15:15.403Z,10.97
2022-11-14T05:20:18.792Z,11.33
2022-11-14T05:25:23.446Z,10.67
2022-11-14T05:30:26.647Z,9.73
2022-11-14T05:35:29.796Z,10.97
2022-11-14T05:40:34.297Z,10.23
2022-11-14T05:45:37.563Z,9.23
2022-11-14T05:50:40.831Z,15.70
2022-11-14T05:55:45.472Z,11.80
2022-11-14T06:00:53.622Z,8.73
2022-11-14T06:05:57.320Z,8.30
2022-11-14T06:11:05.710Z,10.37
2022-11-14T06:16:11.480Z,9.13
2022-11-14T06:21:16.300Z,9.10
2022-11-14T06:26:23.902Z,9.87
2022-11-14T06:31:27.626Z,14.80
2022-11-14T06:36:31.344Z,15.00
2022-11-14T06:41:35.988Z,16.23
2022-11-14T06:46:39.180Z,12.70
2022-11-14T06:51:42.366Z,10.97
2022-11-14T06:56:47.146Z,12.43
2022-11-14T07:01:50.272Z,10.27
2022-11-14T07:06:53.587Z,11.00
2022-11-14T07:11:58.123Z,10.00
2022-11-14T07:17:01.536Z,18.25
2022-11-14T07:22:04.888Z,12.30
2022-11-14T07:27:12.198Z,10.57
2022-11-14T07:32:15.662Z,10.40
2022-11-14T07:37:18.879Z,13.03
2022-11-14T07:42:23.485Z,15.23
2022-11-14T07:47:27.819Z,25.73
2022-11-14T07:52:31.821Z,12.73
2022-11-14T07:57:41.099Z,8.30
2022-11-14T08:02:47.252Z,5.40
2022-11-14T08:07:52.032Z,6.63
2022-11-14T08:13:25.175Z,4.75
2022-11-14T08:18:25.670Z,4.30
2022-11-14T08:23:37.291Z,3.50
2022-11-14T08:28:42.032Z,3.85
2022-11-14T08:33:45.226Z,3.95
2022-11-14T08:38:51.403Z,6.65
2022-11-14T08:43:57.170Z,2.83
2022-11-14T08:49:04.694Z,2.65
2022-11-14T08:54:07.968Z,2.45
2022-11-14T08:59:14.339Z,2.40
2022-11-14T09:04:20.352Z,1.80
2022-11-14T09:09:25.178Z,2.08
2022-11-14T09:14:37.864Z,1.73
2022-11-14T09:19:42.447Z,1.40
2022-11-14T09:24:49.553Z,1.63
2022-11-14T09:29:55.952Z,1.27
2022-11-14T09:35:02.137Z,2.03
2022-11-14T09:40:25.698Z,5.95
2022-11-14T09:45:37.316Z,2.30
2022-11-14T09:50:53.568Z,1.40
2022-11-14T09:56:03.942Z,0.95
2022-11-14T10:01:14.173Z,1.42
2022-11-14T10:06:31.166Z,1.02
2022-11-14T10:11:43.056Z,0.80
2022-11-14T10:16:58.168Z,1.08
2022-11-14T10:22:13.742Z,0.73
2022-11-14T10:27:21.720Z,1.30
2022-11-14T10:32:47.754Z,0.70
2022-11-14T10:38:00.335Z,1.58
2022-11-14T10:43:16.956Z,1.20
2022-11-14T10:48:31.577Z,0.98
2022-11-14T10:53:53.174Z,1.00
2022-11-14T10:58:56.487Z,0.82
2022-11-14T11:04:14.228Z,1.08
2022-11-14T11:09:43.952Z,0.35
2022-11-14T11:14:51.385Z,1.13
2022-11-14T11:19:55.961Z,1.13
2022-11-14T11:25:01.657Z,0.70
2022-11-14T11:30:19.565Z,1.60
2022-11-14T11:35:24.581Z,0.90
2022-11-14T11:40:32.624Z,1.00
2022-11-14T11:45:36.380Z,2.50
2022-11-14T11:50:51.005Z,2.60
2022-11-14T11:56:03.633Z,1.35
2022-11-14T12:01:11.417Z,2.63
2022-11-14T12:06:24.935Z,0.98
2022-11-14T12:11:31.685Z,1.60
2022-11-14T12:17:04.959Z,1.20
2022-11-14T12:22:29.675Z,1.17
2022-11-14T12:27:52.359Z,1.10
2022-11-14T12:33:01.193Z,1.38
2022-11-14T12:38:14.338Z,2.15
2022-11-14T12:43:36.925Z,1.65
2022-11-14T12:48:42.331Z,3.67
2022-11-14T12:53:47.349Z,1.38
2022-11-14T12:59:25.988Z,1.27
2022-11-14T13:04:41.626Z,0.70
2022-11-14T13:10:04.902Z,1.70
2022-11-14T13:15:49.860Z,4.63
2022-11-14T13:21:21.395Z,2.45
2022-11-14T13:26:44.623Z,2.17
2022-11-14T13:31:50.694Z,3.40
2022-11-14T13:37:00.382Z,1.83
2022-11-14T13:42:25.900Z,1.73
2022-11-14T13:47:52.491Z,3.42
2022-11-14T13:52:58.265Z,2.40
2022-11-14T13:58:15.884Z,2.00
2022-11-14T14:03:29.246Z,7.07
2022-11-14T14:08:57.393Z,4.63
2022-11-14T14:14:17.585Z,2.20
2022-11-14T14:19:28.782Z,1.95
2022-11-14T14:24:46.714Z,1.90
2022-11-14T14:30:01.484Z,3.97
2022-11-14T14:35:23.713Z,1.08
2022-11-14T14:40:29.297Z,3.60
2022-11-14T14:45:45.863Z,5.35
2022-11-14T14:50:51.997Z,2.65
2022-11-14T14:55:58.136Z,4.50
2022-11-14T15:01:06.408Z,2.67
2022-11-14T15:06:29.868Z,2.15
2022-11-14T15:11:33.760Z,6.35
2022-11-14T15:16:38.342Z,2.35
2022-11-14T15:21:41.577Z,6.20
2022-11-14T15:26:46.315Z,2.45
2022-11-14T15:31:53.811Z,2.92
2022-11-14T15:37:24.379Z,2.17
2022-11-14T15:42:29.950Z,2.40
2022-11-14T15:47:40.139Z,2.70
2022-11-14T15:52:55.289Z,4.15
2022-11-14T15:58:26.032Z,2.75
2022-11-14T16:03:24.394Z,2.17
2022-11-14T16:08:27.956Z,5.93
2022-11-14T16:13:31.610Z,3.92
2022-11-14T16:18:36.548Z,2.47
2022-11-14T16:23:40.055Z,5.05
2022-11-14T16:28:43.467Z,2.70
2022-11-14T16:33:48.317Z,3.03
2022-11-14T16:38:52.582Z,2.15
2022-11-14T16:43:56.823Z,2.63
2022-11-14T16:49:01.569Z,2.17
2022-11-14T16:54:05.723Z,5.10
2022-11-14T16:59:10.548Z,3.80
2022-11-14T17:04:15.922Z,2.13
2022-11-14T17:09:19.285Z,3.35
2022-11-14T17:14:22.493Z,4.18
2022-11-14T17:19:27.077Z,7.95
2022-11-14T17:24:31.618Z,3.78
2022-11-14T17:29:35.130Z,5.40
2022-11-14T17:34:39.732Z,4.28
2022-11-14T17:39:42.911Z,2.42
2022-11-14T17:44:46.110Z,4.32
2022-11-14T17:49:50.662Z,2.80
2022-11-14T17:54:53.901Z,2.83
2022-11-14T17:59:57.083Z,3.03
2022-11-14T18:05:01.655Z,2.88
2022-11-14T18:10:05.394Z,3.00
2022-11-14T18:15:09.244Z,5.15
2022-11-14T18:20:13.886Z,1.52
2022-11-14T18:25:17.322Z,2.97
2022-11-14T18:30:40.292Z,1.33
2022-11-14T18:35:45.196Z,2.60
2022-11-14T18:40:52.929Z,2.00
2022-11-14T18:46:06.629Z,7.32
2022-11-14T18:51:13.983Z,8.10
2022-11-14T18:56:20.194Z,6.68
2022-11-14T19:01:29.899Z,6.95
2022-11-14T19:06:36.539Z,8.48
2022-11-14T19:11:57.514Z,8.40
2022-11-14T19:17:01.211Z,7.47
2022-11-14T19:22:05.886Z,11.20
2022-11-14T19:27:09.022Z,6.35
2022-11-14T19:32:12.312Z,7.07
2022-11-14T19:37:16.817Z,7.57
2022-11-14T19:42:20.006Z,5.85
2022-11-14T19:47:23.282Z,9.27
2022-11-14T19:52:28.059Z,8.52
2022-11-14T19:57:32.038Z,6.55
2022-11-14T20:02:38.617Z,5.32
2022-11-14T20:07:43.195Z,5.95
2022-11-14T20:12:46.495Z,6.75
2022-11-14T20:17:49.761Z,12.43
2022-11-14T20:22:54.326Z,15.13
2022-11-14T20:27:57.590Z,11.00
2022-11-14T20:33:01.883Z,12.60
2022-11-14T20:38:08.113Z,9.43
2022-11-14T20:43:11.287Z,13.07
2022-11-14T20:48:14.751Z,13.30
2022-11-14T20:53:19.533Z,13.02
2022-11-14T20:58:22.758Z,13.55
2022-11-14T21:03:26.462Z,11.07
2022-11-14T21:08:34.316Z,14.65
2022-11-14T21:13:56.108Z,12.38
2022-11-14T21:18:59.902Z,6.95
2022-11-14T21:24:05.177Z,8.85
2022-11-14T21:29:11.177Z,8.73
2022-11-14T21:34:18.108Z,6.72
2022-11-14T21:39:22.648Z,6.60
2022-11-14T21:44:25.858Z,5.28
2022-11-14T21:49:29.093Z,5.25
2022-11-14T21:54:33.681Z,6.63
2022-11-14T21:59:36.814Z,4.88
2022-11-14T22:04:40.246Z,6.38
2022-11-14T22:09:45.857Z,6.95
2022-11-14T22:14:49.063Z,8.85
2022-11-14T22:19:52.312Z,5.77
2022-11-14T22:24:56.851Z,7.00
2022-11-14T22:30:00.033Z,8.37
2022-11-14T22:35:03.275Z,8.60
2022-11-14T22:40:09.769Z,7.37
2022-11-14T22:45:12.963Z,8.87
2022-11-14T22:50:16.475Z,8.23
2022-11-14T22:55:21.084Z,6.07
2022-11-14T23:00:24.321Z,6.10
2022-11-14T23:05:27.542Z,4.97
2022-11-14T23:10:34.872Z,4.50
2022-11-14T23:15:38.430Z,4.50
2022-11-14T23:20:41.717Z,6.73
2022-11-14T23:25:46.284Z,5.60
2022-11-14T23:30:49.540Z,6.47
2022-11-14T23:35:52.900Z,6.03
2022-11-14T23:40:59.042Z,9.33
2022-11-14T23:46:02.196Z,5.70
2022-11-14T23:51:05.563Z,8.17
2022-11-14T23:56:13.782Z,7.75
